Time;durP1;ratioP1;P1;durP2;ratioP2;P2;SDS_P1;SDS_P2;PMS_P1;PMS_P2;Temp;Humidity;BMP_temperature;BMP_pressure;BME280_temperature;BME280_humidity;BME280_pressure;Samples;Min_cycle;Max_cycle;Signal;HPM_P1;HPM_P2
2022/03/08 00:01:09;;;;;;;10.67;8.10;;;2.10;99.90;;;;;;4996670;28;40367;-75
2022/03/08 00:03:35;;;;;;;11.93;8.20;;;2.10;99.90;;;;;;4998908;28;40009;-75
2022/03/08 00:06:01;;;;;;;12.00;8.20;;;2.00;99.90;;;;;;5003069;28;39578;-74
2022/03/08 00:08:27;;;;;;;12.43;7.90;;;2.00;99.90;;;;;;4999064;28;36962;-75
2022/03/08 00:10:53;;;;;;;11.03;8.03;;;1.80;99.90;;;;;;4998615;28;40993;-75
2022/03/08 00:13:20;;;;;;;13.77;8.47;;;1.80;99.90;;;;;;4996409;28;38067;-75
2022/03/08 00:15:46;;;;;;;10.83;7.77;;;1.80;99.90;;;;;;4997297;28;36952;-74
2022/03/08 00:18:12;;;;;;;9.50;7.00;;;1.80;99.90;;;;;;4997385;28;37337;-75
2022/03/08 00:20:39;;;;;;;10.30;7.27;;;1.70;99.90;;;;;;5018436;28;39710;-75
2022/03/08 00:23:05;;;;;;;11.43;8.23;;;1.70;99.90;;;;;;4998379;28;38978;-75
2022/03/08 00:25:31;;;;;;;10.63;8.23;;;1.80;99.90;;;;;;4994739;28;39043;-75
2022/03/08 00:27:57;;;;;;;11.27;8.17;;;1.90;99.90;;;;;;5006885;28;37539;-75
2022/03/08 00:30:26;;;;;;;13.60;7.27;;;1.90;99.90;;;;;;5002192;28;39280;-75
2022/03/08 00:32:53;;;;;;;10.07;7.53;;;2.00;99.90;;;;;;5001071;28;39018;-75
2022/03/08 00:35:21;;;;;;;12.67;7.20;;;1.90;99.90;;;;;;5003086;28;38278;-75
2022/03/08 00:37:49;;;;;;;11.63;7.83;;;1.90;99.90;;;;;;4991620;28;39056;-76
2022/03/08 00:40:18;;;;;;;10.00;7.87;;;1.90;99.90;;;;;;4994712;28;39168;-75
2022/03/08 00:42:44;;;;;;;12.50;8.07;;;1.90;99.90;;;;;;5008020;28;39169;-75
2022/03/08 00:45:10;;;;;;;11.00;7.40;;;1.90;99.90;;;;;;4996553;28;39009;-75
2022/03/08 00:47:41;;;;;;;9.70;7.37;;;1.90;99.90;;;;;;5015000;28;35212;-75
2022/03/08 00:50:15;;;;;;;10.83;7.37;;;1.90;99.90;;;;;;5000035;28;38800;-75
2022/03/08 00:52:41;;;;;;;11.70;7.63;;;1.90;99.90;;;;;;4996018;28;40236;-77
2022/03/08 00:55:09;;;;;;;8.70;6.93;;;1.90;99.90;;;;;;4993473;28;39953;-75
2022/03/08 00:57:35;;;;;;;11.13;7.27;;;1.90;99.90;;;;;;5011922;28;37898;-75
2022/03/08 01:00:04;;;;;;;9.13;7.40;;;1.80;99.90;;;;;;4997170;28;38845;-75
2022/03/08 01:02:30;;;;;;;11.80;7.07;;;1.80;99.90;;;;;;5013292;28;46892;-75
2022/03/08 01:04:56;;;;;;;11.27;7.57;;;1.80;99.90;;;;;;5003027;28;38210;-75
2022/03/08 01:07:23;;;;;;;9.83;7.43;;;1.80;99.90;;;;;;4993150;28;37731;-75
2022/03/08 01:09:49;;;;;;;9.60;7.17;;;1.70;99.90;;;;;;4997861;28;39838;-75
2022/03/08 01:12:15;;;;;;;13.10;7.70;;;1.70;99.90;;;;;;4997751;28;38714;-78
2022/03/08 01:14:41;;;;;;;9.20;7.30;;;1.80;99.90;;;;;;4994535;28;39139;-75
2022/03/08 01:17:07;;;;;;;10.87;7.73;;;1.70;99.90;;;;;;4997251;28;37016;-75
2022/03/08 01:19:33;;;;;;;10.33;8.10;;;1.70;99.90;;;;;;4997025;28;39855;-77
2022/03/08 01:21:59;;;;;;;12.40;7.43;;;1.70;99.90;;;;;;5000996;28;39053;-77
2022/03/08 01:24:28;;;;;;;8.57;6.63;;;1.70;99.90;;;;;;5001302;28;38791;-77
2022/03/08 01:26:54;;;;;;;7.73;6.53;;;1.70;99.90;;;;;;4997500;28;37847;-77
2022/03/08 01:29:20;;;;;;;12.27;7.73;;;1.60;99.90;;;;;;4998786;28;39848;-78
2022/03/08 01:31:46;;;;;;;10.77;7.80;;;1.60;99.90;;;;;;5000834;28;39429;-77
2022/03/08 01:34:12;;;;;;;10.83;7.07;;;1.60;99.90;;;;;;4997895;28;38374;-77
2022/03/08 01:36:38;;;;;;;8.93;6.93;;;1.60;99.90;;;;;;5002188;28;37428;-77
2022/03/08 01:39:05;;;;;;;11.73;7.03;;;1.70;99.90;;;;;;5000171;28;39146;-77
2022/03/08 01:41:31;;;;;;;11.13;7.80;;;1.70;99.90;;;;;;4988206;28;40163;-77
2022/03/08 01:43:57;;;;;;;8.97;6.90;;;1.70;99.90;;;;;;4992721;28;38742;-78
2022/03/08 01:46:23;;;;;;;10.67;7.27;;;1.70;99.90;;;;;;5001641;28;37035;-78
2022/03/08 01:48:49;;;;;;;9.80;7.43;;;1.70;99.90;;;;;;4994804;28;38937;-77
2022/03/08 01:51:16;;;;;;;10.63;7.20;;;1.60;99.90;;;;;;4997922;28;39400;-77
2022/03/08 01:53:42;;;;;;;9.97;7.40;;;1.60;99.90;;;;;;5002939;28;40981;-77
2022/03/08 01:56:10;;;;;;;8.67;6.73;;;1.60;99.90;;;;;;5013392;28;37749;-77
2022/03/08 01:58:37;;;;;;;12.40;6.90;;;1.50;99.90;;;;;;4994592;28;40400;-78
2022/03/08 02:01:05;;;;;;;11.30;6.97;;;1.50;99.90;;;;;;4992810;28;39065;-77
2022/03/08 02:03:31;;;;;;;12.43;7.37;;;1.50;99.90;;;;;;5006984;28;40287;-77
2022/03/08 02:05:57;;;;;;;10.73;6.97;;;1.40;99.90;;;;;;4997028;28;36135;-77
2022/03/08 02:08:24;;;;;;;10.53;6.70;;;1.40;99.90;;;;;;4995414;28;39999;-77
2022/03/08 02:10:52;;;;;;;10.83;6.83;;;1.40;99.90;;;;;;4999750;28;38911;-77
2022/03/08 02:13:18;;;;;;;10.13;6.50;;;1.60;99.90;;;;;;4991592;28;39895;-77
2022/03/08 02:15:49;;;;;;;8.83;6.40;;;1.60;99.90;;;;;;5008752;28;37577;-77
2022/03/08 02:18:17;;;;;;;8.03;6.23;;;1.60;99.90;;;;;;4997116;28;38979;-77
2022/03/08 02:20:43;;;;;;;8.30;6.47;;;1.60;99.90;;;;;;5009822;28;40489;-77
2022/03/08 02:23:09;;;;;;;7.97;6.27;;;1.60;99.90;;;;;;5000676;28;38859;-77
2022/03/08 02:25:35;;;;;;;10.93;6.47;;;1.60;99.90;;;;;;5012025;28;37249;-77
2022/03/08 02:28:02;;;;;;;7.70;6.30;;;1.60;99.90;;;;;;5010682;28;39688;-76
2022/03/08 02:30:28;;;;;;;10.33;7.57;;;1.50;99.90;;;;;;5010437;28;39073;-77
2022/03/08 02:32:55;;;;;;;9.60;6.40;;;1.40;99.90;;;;;;4990489;28;38748;-77
2022/03/08 02:35:24;;;;;;;10.70;7.07;;;1.50;99.90;;;;;;4992952;28;37318;-77
2022/03/08 02:37:52;;;;;;;10.90;7.13;;;1.40;99.90;;;;;;5004389;28;39597;-77
2022/03/08 02:40:22;;;;;;;9.07;7.00;;;1.40;99.90;;;;;;4998872;28;38889;-77
2022/03/08 02:42:49;;;;;;;9.50;6.93;;;1.30;99.90;;;;;;4998042;28;39360;-78
2022/03/08 02:45:17;;;;;;;10.20;6.70;;;1.40;99.90;;;;;;4996442;28;37826;-78
2022/03/08 02:47:43;;;;;;;11.17;6.33;;;1.40;99.90;;;;;;4999346;28;39861;-78
2022/03/08 02:50:11;;;;;;;9.50;7.20;;;1.30;99.90;;;;;;4988800;28;39049;-77
2022/03/08 02:52:43;;;;;;;9.60;6.87;;;1.30;99.90;;;;;;4991863;28;39366;-77
2022/03/08 02:55:11;;;;;;;11.30;7.38;;;1.20;99.90;;;;;;4998732;28;37212;-76
2022/03/08 02:57:39;;;;;;;10.57;7.87;;;1.20;99.90;;;;;;4989932;28;38968;-77
2022/03/08 03:00:09;;;;;;;10.93;7.20;;;1.20;99.90;;;;;;5001272;28;39324;-77
2022/03/08 03:02:35;;;;;;;9.70;7.70;;;1.20;99.90;;;;;;4995781;28;38864;-77
2022/03/08 03:05:02;;;;;;;9.47;7.20;;;1.10;99.90;;;;;;5007031;28;37043;-77
2022/03/08 03:07:28;;;;;;;11.03;7.60;;;1.10;99.90;;;;;;4998890;28;47627;-77
2022/03/08 03:09:54;;;;;;;11.73;7.97;;;1.10;99.90;;;;;;4995923;28;38908;-77
2022/03/08 03:12:21;;;;;;;11.73;7.57;;;1.10;99.90;;;;;;4992551;28;39756;-77
2022/03/08 03:14:47;;;;;;;10.13;7.17;;;1.10;99.90;;;;;;5011504;28;36837;-77
2022/03/08 03:17:13;;;;;;;10.20;7.57;;;1.10;99.90;;;;;;5010181;28;37412;-77
2022/03/08 03:19:39;;;;;;;9.17;6.93;;;1.00;99.90;;;;;;4999579;28;39651;-77
2022/03/08 03:22:05;;;;;;;9.53;7.10;;;1.00;99.90;;;;;;4995704;28;39579;-76
2022/03/08 03:24:31;;;;;;;9.63;7.37;;;0.90;99.90;;;;;;4999514;28;37192;-77
2022/03/08 03:26:57;;;;;;;9.27;6.67;;;1.00;99.90;;;;;;5004023;28;39500;-77
2022/03/08 03:29:23;;;;;;;11.07;8.00;;;0.90;99.90;;;;;;4997797;28;39422;-77
2022/03/08 03:31:49;;;;;;;11.47;7.00;;;0.90;99.90;;;;;;4993844;28;39592;-77
2022/03/08 03:34:16;;;;;;;10.83;7.30;;;0.90;99.90;;;;;;5009362;28;37603;-76
2022/03/08 03:36:42;;;;;;;14.10;7.20;;;0.90;99.90;;;;;;4995430;28;39973;-77
2022/03/08 03:39:08;;;;;;;10.67;7.57;;;0.90;99.90;;;;;;5012910;28;40718;-77
2022/03/08 03:41:34;;;;;;;12.30;7.73;;;0.80;99.90;;;;;;5018383;28;39365;-77
2022/03/08 03:44:00;;;;;;;9.40;7.33;;;0.80;99.90;;;;;;4997465;28;38733;-77
2022/03/08 03:46:26;;;;;;;9.70;7.50;;;0.80;99.90;;;;;;5002553;28;38658;-77
2022/03/08 03:48:52;;;;;;;9.67;7.47;;;0.70;99.90;;;;;;5000097;28;39697;-77
2022/03/08 03:51:18;;;;;;;10.93;7.30;;;0.70;99.90;;;;;;5006266;28;38275;-76
2022/03/08 03:53:45;;;;;;;10.63;7.30;;;0.70;99.90;;;;;;5017356;28;37674;-77
2022/03/08 03:56:11;;;;;;;11.20;8.17;;;0.70;99.90;;;;;;4999562;28;39507;-77
2022/03/08 03:58:37;;;;;;;10.73;7.43;;;0.80;99.90;;;;;;5013969;28;38976;-77
2022/03/08 04:01:04;;;;;;;11.97;7.87;;;0.90;99.90;;;;;;5005232;28;38677;-77
2022/03/08 04:03:30;;;;;;;9.83;7.20;;;0.80;99.90;;;;;;5004880;28;37740;-77
2022/03/08 04:05:57;;;;;;;11.63;7.70;;;0.80;99.90;;;;;;5009846;28;38891;-77
2022/03/08 04:08:23;;;;;;;11.50;8.27;;;0.80;99.90;;;;;;5015508;28;38197;-77
2022/03/08 04:10:52;;;;;;;14.10;7.70;;;0.80;99.90;;;;;;5003753;28;38797;-77
2022/03/08 04:13:18;;;;;;;13.70;8.17;;;0.80;99.90;;;;;;4997516;28;37814;-77
2022/03/08 04:15:45;;;;;;;9.87;7.80;;;0.70;99.90;;;;;;4992171;28;40065;-77
2022/03/08 04:18:12;;;;;;;10.17;7.27;;;0.70;99.90;;;;;;5015231;28;39312;-77
2022/03/08 04:20:38;;;;;;;11.30;8.00;;;0.60;99.90;;;;;;5001718;28;38610;-77
2022/03/08 04:23:04;;;;;;;14.03;8.83;;;0.60;99.90;;;;;;5005088;28;37923;-77
2022/03/08 04:25:31;;;;;;;13.40;8.20;;;0.50;99.90;;;;;;5015304;28;38517;-77
2022/03/08 04:27:57;;;;;;;13.83;8.80;;;0.40;99.90;;;;;;4999289;28;39020;-76
2022/03/08 04:30:24;;;;;;;11.37;8.10;;;0.40;99.90;;;;;;4988639;28;39077;-77
2022/03/08 04:32:50;;;;;;;11.50;8.80;;;0.40;99.90;;;;;;4997717;28;37924;-77
2022/03/08 04:35:17;;;;;;;12.63;8.30;;;0.30;99.90;;;;;;4996239;28;38971;-76
2022/03/08 04:37:44;;;;;;;13.83;8.50;;;0.30;99.90;;;;;;4994852;28;39612;-76
2022/03/08 04:40:11;;;;;;;12.70;8.57;;;0.20;99.90;;;;;;4992918;28;37229;-76
2022/03/08 04:42:38;;;;;;;12.70;8.83;;;0.30;99.90;;;;;;5000966;28;37856;-77
2022/03/08 04:45:06;;;;;;;12.03;8.73;;;0.30;99.90;;;;;;5020674;28;37657;-76
2022/03/08 04:47:34;;;;;;;11.73;9.07;;;0.20;99.90;;;;;;5000602;28;38549;-76
2022/03/08 04:50:00;;;;;;;11.77;8.40;;;0.20;99.90;;;;;;5007690;28;38392;-77
2022/03/08 04:52:26;;;;;;;12.03;8.60;;;0.10;99.90;;;;;;4996682;28;48484;-76
2022/03/08 04:54:52;;;;;;;15.27;9.13;;;0.20;99.90;;;;;;5001688;28;40155;-76
2022/03/08 04:57:18;;;;;;;12.43;8.80;;;0.10;99.90;;;;;;5003589;28;40045;-76
2022/03/08 04:59:47;;;;;;;12.43;9.07;;;0.20;99.90;;;;;;5000269;28;39942;-76
2022/03/08 05:02:13;;;;;;;12.97;9.20;;;0.20;99.90;;;;;;5022902;28;38816;-76
2022/03/08 05:04:40;;;;;;;14.80;9.57;;;0.10;99.90;;;;;;4995078;28;40479;-76
2022/03/08 05:07:06;;;;;;;15.00;8.87;;;0.10;99.90;;;;;;5008013;28;39947;-76
2022/03/08 05:09:32;;;;;;;13.97;9.50;;;0.00;99.90;;;;;;5006693;28;38767;-76
2022/03/08 05:11:58;;;;;;;13.13;9.30;;;0.00;99.90;;;;;;5000460;28;37112;-76
2022/03/08 05:14:24;;;;;;;15.73;9.80;;;0.00;99.90;;;;;;5002735;28;39850;-77
2022/03/08 05:16:52;;;;;;;14.10;10.17;;;-0.20;99.90;;;;;;5001274;28;39854;-77
2022/03/08 05:19:18;;;;;;;14.90;8.83;;;-0.30;99.90;;;;;;5003835;28;38502;-76
2022/03/08 05:21:44;;;;;;;14.47;9.60;;;-0.40;99.90;;;;;;4986590;28;37537;-76
2022/03/08 05:24:10;;;;;;;14.67;10.23;;;-0.40;99.90;;;;;;5002356;28;39516;-76
2022/03/08 05:26:38;;;;;;;18.87;10.10;;;-0.50;99.90;;;;;;5000551;28;39419;-76
2022/03/08 05:29:05;;;;;;;19.90;10.83;;;-0.50;99.90;;;;;;5002732;28;38763;-75
2022/03/08 05:31:34;;;;;;;13.63;9.30;;;-0.50;99.90;;;;;;4992370;28;37187;-76
2022/03/08 05:34:02;;;;;;;12.53;9.30;;;-0.50;99.90;;;;;;5006825;28;37714;-77
2022/03/08 05:36:29;;;;;;;12.80;9.50;;;-0.40;99.90;;;;;;5000835;28;47462;-77
2022/03/08 05:38:55;;;;;;;15.60;9.67;;;-0.40;99.90;;;;;;4999386;28;38344;-75
2022/03/08 05:41:22;;;;;;;14.33;9.20;;;-0.30;99.90;;;;;;5003884;28;36088;-76
2022/03/08 05:43:48;;;;;;;14.63;9.87;;;-0.30;99.90;;;;;;5011886;28;40808;-76
2022/03/08 05:46:14;;;;;;;11.87;8.30;;;-0.30;99.90;;;;;;5001562;28;39818;-76
2022/03/08 05:48:40;;;;;;;14.90;10.10;;;-0.30;99.90;;;;;;4997600;28;37049;-77
2022/03/08 05:51:06;;;;;;;12.67;9.53;;;-0.40;99.90;;;;;;4999921;28;36934;-76
2022/03/08 05:53:32;;;;;;;13.73;9.73;;;-0.40;99.90;;;;;;4997971;28;39141;-76
2022/03/08 05:55:58;;;;;;;13.40;10.23;;;-0.40;99.90;;;;;;4993937;28;39530;-76
2022/03/08 05:58:24;;;;;;;14.30;9.37;;;-0.30;99.90;;;;;;4995687;28;38728;-76
2022/03/08 06:00:51;;;;;;;13.83;9.43;;;-0.20;99.90;;;;;;4997778;28;37589;-76
2022/03/08 06:03:17;;;;;;;14.60;10.00;;;-0.30;99.90;;;;;;5001058;28;38200;-76
2022/03/08 06:05:43;;;;;;;12.27;9.37;;;-0.30;99.90;;;;;;5020411;28;37815;-76
2022/03/08 06:08:09;;;;;;;15.57;9.60;;;-0.30;99.90;;;;;;5002060;28;37419;-75
2022/03/08 06:10:36;;;;;;;15.20;9.77;;;-0.30;99.90;;;;;;4995598;28;37807;-76
2022/03/08 06:13:03;;;;;;;14.07;10.43;;;-0.40;99.90;;;;;;5004396;28;39818;-76
2022/03/08 06:15:29;;;;;;;16.07;9.90;;;-0.30;99.90;;;;;;4995272;28;48845;-76
2022/03/08 06:17:55;;;;;;;12.77;9.57;;;-0.30;99.90;;;;;;5004622;28;39952;-76
2022/03/08 06:20:21;;;;;;;16.07;10.00;;;-0.30;99.90;;;;;;5020850;28;36215;-75
2022/03/08 06:22:47;;;;;;;16.53;9.57;;;-0.40;99.90;;;;;;5004361;28;38781;-76
2022/03/08 06:25:13;;;;;;;17.40;9.57;;;-0.40;99.90;;;;;;5001850;28;39125;-76
2022/03/08 06:27:39;;;;;;;16.20;9.80;;;-0.40;99.90;;;;;;5004687;28;38264;-76
2022/03/08 06:30:06;;;;;;;13.77;9.90;;;-0.30;99.90;;;;;;5005027;28;37013;-75
2022/03/08 06:32:32;;;;;;;13.33;9.33;;;-0.30;99.90;;;;;;5023482;28;37982;-76
2022/03/08 06:34:58;;;;;;;16.27;9.97;;;-0.30;99.90;;;;;;5006528;28;37403;-77
2022/03/08 06:37:24;;;;;;;13.23;9.50;;;-0.30;99.90;;;;;;5000920;28;38562;-77
2022/03/08 06:39:50;;;;;;;15.50;10.07;;;-0.30;99.90;;;;;;5000794;28;36966;-76
2022/03/08 06:42:17;;;;;;;14.50;10.20;;;-0.20;99.90;;;;;;4987679;28;38718;-76
2022/03/08 06:44:44;;;;;;;14.20;9.73;;;0.00;99.90;;;;;;4993037;28;40133;-76
2022/03/08 06:47:10;;;;;;;14.07;9.57;;;0.00;99.90;;;;;;4996749;28;37303;-76
2022/03/08 06:49:41;;;;;;;14.13;9.13;;;0.00;99.90;;;;;;5000114;28;37061;-77
2022/03/08 06:52:09;;;;;;;12.57;8.77;;;0.20;99.90;;;;;;4995686;28;36635;-76
2022/03/08 06:54:35;;;;;;;13.57;9.23;;;0.20;99.90;;;;;;4998620;28;38990;-76
2022/03/08 06:57:02;;;;;;;13.60;8.90;;;0.30;99.90;;;;;;5011465;28;39919;-75
2022/03/08 06:59:28;;;;;;;13.47;9.33;;;0.30;99.90;;;;;;4995264;28;36825;-76
2022/03/08 07:01:56;;;;;;;15.20;9.37;;;0.40;99.90;;;;;;4996771;28;40097;-76
2022/03/08 07:04:23;;;;;;;14.70;9.00;;;0.40;99.90;;;;;;4997972;28;38945;-75
2022/03/08 07:06:50;;;;;;;13.10;8.60;;;0.50;99.90;;;;;;5017754;28;38832;-76
2022/03/08 07:09:16;;;;;;;12.30;8.47;;;0.60;99.90;;;;;;5006290;28;38117;-76
2022/03/08 07:11:43;;;;;;;13.53;8.20;;;0.60;99.90;;;;;;5009158;28;39964;-77
2022/03/08 07:14:10;;;;;;;12.50;8.53;;;0.70;99.90;;;;;;4994662;28;39069;-75
2022/03/08 07:16:36;;;;;;;10.40;7.80;;;0.80;99.90;;;;;;4996659;28;40427;-77
2022/03/08 07:19:02;;;;;;;11.37;8.67;;;0.80;99.90;;;;;;5002246;28;36804;-76
2022/03/08 07:21:29;;;;;;;13.10;9.13;;;0.80;99.90;;;;;;5019122;28;39510;-77
2022/03/08 07:23:55;;;;;;;12.90;9.13;;;0.80;99.90;;;;;;5009212;28;39201;-76
2022/03/08 07:26:21;;;;;;;16.40;8.40;;;0.90;99.90;;;;;;4995084;28;38561;-77
2022/03/08 07:28:47;;;;;;;12.40;8.87;;;0.90;99.90;;;;;;4999730;28;36033;-77
2022/03/08 07:31:13;;;;;;;12.43;8.40;;;1.00;99.90;;;;;;4998993;28;39586;-76
2022/03/08 07:33:41;;;;;;;15.13;8.13;;;1.10;99.90;;;;;;5004749;28;38984;-76
2022/03/08 07:36:09;;;;;;;13.83;8.37;;;1.20;99.90;;;;;;5000883;28;37541;-76
2022/03/08 07:38:36;;;;;;;13.73;9.23;;;1.20;99.90;;;;;;4998385;28;36931;-77
2022/03/08 07:41:05;;;;;;;10.63;7.90;;;1.20;99.90;;;;;;4997446;28;39937;-76
2022/03/08 07:43:34;;;;;;;11.20;7.90;;;1.30;99.90;;;;;;5003726;28;39747;-77
2022/03/08 07:46:01;;;;;;;14.27;8.43;;;1.40;99.90;;;;;;5004631;28;37662;-77
2022/03/08 07:48:27;;;;;;;11.03;8.10;;;1.60;99.90;;;;;;4992570;28;47335;-76
2022/03/08 07:50:53;;;;;;;10.73;7.87;;;1.60;99.90;;;;;;4995335;28;37461;-77
2022/03/08 07:53:19;;;;;;;12.53;8.23;;;1.60;99.90;;;;;;5015732;28;38925;-76
2022/03/08 07:55:47;;;;;;;10.97;7.27;;;1.70;99.90;;;;;;5001012;28;38419;-77
2022/03/08 07:58:14;;;;;;;11.17;7.20;;;1.70;99.90;;;;;;5008413;28;37762;-78
2022/03/08 08:00:41;;;;;;;10.37;7.07;;;1.80;99.90;;;;;;5000538;28;37583;-77
2022/03/08 08:03:08;;;;;;;11.30;7.53;;;1.80;99.90;;;;;;5009881;28;37734;-77
2022/03/08 08:05:35;;;;;;;12.20;8.40;;;1.90;99.90;;;;;;5019735;28;38397;-77
2022/03/08 08:08:02;;;;;;;10.80;7.40;;;1.90;99.90;;;;;;5009192;28;37229;-77
2022/03/08 08:10:29;;;;;;;11.50;7.20;;;2.00;99.90;;;;;;5007406;28;47019;-77
2022/03/08 08:12:55;;;;;;;9.03;7.23;;;2.20;99.90;;;;;;5022029;28;38448;-77
2022/03/08 08:15:21;;;;;;;13.30;8.20;;;2.20;99.90;;;;;;5017888;28;37142;-77
2022/03/08 08:17:47;;;;;;;10.77;7.53;;;2.30;99.90;;;;;;5004369;28;36900;-77
2022/03/08 08:20:13;;;;;;;10.67;7.43;;;2.40;99.90;;;;;;4995566;28;38298;-77
2022/03/08 08:22:39;;;;;;;9.47;7.37;;;2.40;99.90;;;;;;4999436;28;38855;-77
2022/03/08 08:25:07;;;;;;;10.13;7.43;;;2.50;99.90;;;;;;5003325;28;39240;-76
2022/03/08 08:27:33;;;;;;;10.83;7.50;;;2.60;99.90;;;;;;5005216;28;39229;-77
2022/03/08 08:29:59;;;;;;;12.17;7.27;;;2.70;99.90;;;;;;5002521;28;39750;-77
2022/03/08 08:32:26;;;;;;;12.03;7.17;;;2.80;99.90;;;;;;5003308;28;38535;-77
2022/03/08 08:34:52;;;;;;;8.93;6.27;;;2.90;99.90;;;;;;5015229;28;37146;-76
2022/03/08 08:37:18;;;;;;;10.37;6.70;;;3.00;99.90;;;;;;4995640;28;37541;-78
2022/03/08 08:39:44;;;;;;;9.80;6.33;;;3.10;99.90;;;;;;4999991;28;39710;-76
2022/03/08 08:42:10;;;;;;;7.90;6.47;;;3.20;99.90;;;;;;5007770;28;38747;-76
2022/03/08 08:44:36;;;;;;;12.73;6.60;;;3.20;99.90;;;;;;5023082;28;37441;-77
2022/03/08 08:47:02;;;;;;;11.30;6.60;;;3.20;99.90;;;;;;4998890;28;37993;-76
2022/03/08 08:49:29;;;;;;;12.67;6.77;;;3.30;99.90;;;;;;5021291;28;39246;-77
2022/03/08 08:51:56;;;;;;;8.53;6.53;;;3.40;99.90;;;;;;5006346;28;38716;-75
2022/03/08 08:54:23;;;;;;;9.03;6.47;;;3.40;99.90;;;;;;5013819;28;37348;-77
2022/03/08 08:56:49;;;;;;;7.97;6.37;;;3.50;99.90;;;;;;5016418;28;38919;-76
2022/03/08 08:59:15;;;;;;;10.37;7.30;;;3.60;99.90;;;;;;5002657;28;39560;-75
2022/03/08 09:01:41;;;;;;;8.33;6.63;;;3.60;99.90;;;;;;4998117;28;39732;-75
2022/03/08 09:04:08;;;;;;;8.10;6.40;;;3.70;99.90;;;;;;5014773;28;37638;-74
2022/03/08 09:06:35;;;;;;;8.83;5.90;;;3.70;99.90;;;;;;5013799;28;37889;-77
2022/03/08 09:09:01;;;;;;;8.20;6.10;;;3.80;99.90;;;;;;5003857;28;39648;-75
2022/03/08 09:11:28;;;;;;;12.60;6.60;;;3.90;99.90;;;;;;5008186;28;48134;-75
2022/03/08 09:13:56;;;;;;;13.57;6.73;;;4.10;99.90;;;;;;4998046;28;39120;-76
2022/03/08 09:16:23;;;;;;;11.20;5.97;;;4.00;99.90;;;;;;5009087;28;37493;-75
2022/03/08 09:18:50;;;;;;;8.73;5.90;;;4.10;99.90;;;;;;5003412;28;38849;-75
2022/03/08 09:21:16;;;;;;;9.17;6.80;;;4.20;99.90;;;;;;4989551;28;38978;-75
2022/03/08 09:23:42;;;;;;;7.77;5.97;;;4.30;99.90;;;;;;5024702;28;40090;-77
2022/03/08 09:26:09;;;;;;;8.47;5.77;;;4.30;99.90;;;;;;5004672;28;37043;-75
2022/03/08 09:28:35;;;;;;;9.03;6.40;;;4.40;99.90;;;;;;5033420;28;40279;-76
2022/03/08 09:31:01;;;;;;;8.90;6.40;;;4.40;99.90;;;;;;5004125;28;38286;-76
2022/03/08 09:33:28;;;;;;;8.47;5.80;;;4.50;99.90;;;;;;5004729;28;47453;-75
2022/03/08 09:35:54;;;;;;;9.27;6.50;;;4.50;99.90;;;;;;4997104;28;37214;-75
2022/03/08 09:38:20;;;;;;;12.90;5.93;;;4.60;99.90;;;;;;5002426;28;37970;-76
2022/03/08 09:40:47;;;;;;;6.73;5.70;;;4.60;99.90;;;;;;5003863;28;37831;-78
2022/03/08 09:43:17;;;;;;;9.33;6.03;;;4.80;99.90;;;;;;5001727;28;37281;-76
2022/03/08 09:45:43;;;;;;;11.97;5.57;;;4.90;99.90;;;;;;5006064;28;36870;-75
2022/03/08 09:48:09;;;;;;;11.80;6.40;;;5.00;99.90;;;;;;5004392;28;39266;-75
2022/03/08 09:50:36;;;;;;;8.80;5.57;;;5.10;99.90;;;;;;5004386;28;38746;-76
2022/03/08 09:53:04;;;;;;;8.63;5.97;;;5.20;99.90;;;;;;4995196;28;39004;-75
2022/03/08 09:55:31;;;;;;;12.83;5.70;;;5.40;99.90;;;;;;5018989;28;38200;-78
2022/03/08 09:57:57;;;;;;;12.00;6.27;;;5.60;99.90;;;;;;4998731;28;38413;-74
2022/03/08 10:00:24;;;;;;;13.00;5.97;;;5.60;99.90;;;;;;5005970;28;39633;-75
2022/03/08 10:02:52;;;;;;;8.97;5.60;;;5.70;99.90;;;;;;5008902;28;39715;-76
2022/03/08 10:05:37;;;;;;;8.57;5.63;;;5.90;99.90;;;;;;5005734;28;36590;-77
2022/03/08 10:08:13;;;;;;;10.93;7.90;;;6.10;99.90;;;;;;5001237;28;40452;-77
2022/03/08 10:11:04;;;;;;;11.00;6.47;;;6.20;99.90;;;;;;5003867;28;39812;-79
2022/03/08 10:13:35;;;;;;;9.63;6.13;;;6.10;99.90;;;;;;4992045;28;48747;-76
2022/03/08 10:16:12;;;;;;;11.90;6.33;;;6.10;99.90;;;;;;5004417;28;37924;-77
2022/03/08 10:18:42;;;;;;;12.53;6.27;;;6.30;99.90;;;;;;5006656;28;48349;-79
2022/03/08 10:21:47;;;;;;;11.10;5.47;;;6.50;99.90;;;;;;4999727;28;38716;-77
2022/03/08 10:24:44;;;;;;;8.37;5.33;;;6.60;99.90;;;;;;4947138;28;39095;-78
2022/03/08 10:27:10;;;;;;;12.47;5.30;;;6.60;99.90;;;;;;4933034;28;37945;-77
2022/03/08 10:29:39;;;;;;;8.03;5.27;;;6.60;99.90;;;;;;4977806;28;36647;-77
2022/03/08 10:32:05;;;;;;;10.03;4.97;;;6.70;99.90;;;;;;4991847;28;38760;-76
2022/03/08 10:34:31;;;;;;;8.00;5.77;;;6.70;99.90;;;;;;5003238;28;39534;-78
2022/03/08 10:37:12;;;;;;;6.87;5.40;;;6.80;99.90;;;;;;5010320;28;37474;-79
2022/03/08 10:39:55;;;;;;;6.73;5.43;;;7.10;99.90;;;;;;5004651;28;48751;-81
2022/03/08 10:42:29;;;;;;;6.22;5.38;;;7.10;99.90;;;;;;5008085;28;39572;-78
2022/03/08 10:45:08;;;;;;;7.00;5.23;;;7.10;99.90;;;;;;4996278;28;38024;-78
2022/03/08 10:47:45;;;;;;;7.97;5.50;;;7.20;99.90;;;;;;5025221;28;47724;-79
2022/03/08 10:50:14;;;;;;;7.47;4.93;;;7.30;99.90;;;;;;5007337;28;39409;-78
2022/03/08 10:52:42;;;;;;;8.23;5.53;;;7.30;99.90;;;;;;4998989;28;38759;-80
2022/03/08 10:55:13;;;;;;;6.40;4.93;;;7.40;99.90;;;;;;5007735;28;39483;-78
2022/03/08 10:57:53;;;;;;;5.37;4.20;;;7.50;99.90;;;;;;5000778;28;37047;-80
2022/03/08 11:00:23;;;;;;;6.47;4.73;;;7.70;99.90;;;;;;5001227;28;39725;-79
2022/03/08 11:02:57;;;;;;;8.93;5.33;;;7.70;99.90;;;;;;5017204;28;40009;-79
2022/03/08 11:05:25;;;;;;;7.47;5.00;;;7.80;99.90;;;;;;5005556;28;39190;-79
2022/03/08 11:07:52;;;;;;;9.10;5.30;;;7.80;99.90;;;;;;5011742;28;37406;-79
2022/03/08 11:10:19;;;;;;;8.87;5.20;;;7.80;99.90;;;;;;5021545;28;40261;-78
2022/03/08 11:12:46;;;;;;;6.67;4.80;;;7.80;99.90;;;;;;5001041;28;39782;-78
2022/03/08 11:15:14;;;;;;;6.77;5.30;;;8.00;99.90;;;;;;5007461;28;39155;-78
2022/03/08 11:17:44;;;;;;;7.43;5.13;;;8.10;99.90;;;;;;4997195;28;36801;-79
2022/03/08 11:20:12;;;;;;;8.17;4.83;;;8.10;99.90;;;;;;4993502;28;38591;-79
2022/03/08 11:22:40;;;;;;;8.33;5.10;;;8.20;99.90;;;;;;5007348;28;39412;-78
2022/03/08 11:25:08;;;;;;;7.47;5.17;;;8.40;99.90;;;;;;5010036;28;38473;-78
2022/03/08 11:27:38;;;;;;;6.93;5.10;;;8.30;99.90;;;;;;5007239;28;37542;-79
2022/03/08 11:30:05;;;;;;;5.30;4.80;;;8.30;99.90;;;;;;5008192;28;38285;-78
2022/03/08 11:32:46;;;;;;;6.67;4.67;;;8.50;99.90;;;;;;5007811;28;40222;-79
2022/03/08 11:35:28;;;;;;;6.80;4.60;;;8.70;99.90;;;;;;5003183;28;38997;-80
2022/03/08 11:37:54;;;;;;;5.23;4.67;;;8.70;99.90;;;;;;4995196;28;35127;-79
2022/03/08 11:40:21;;;;;;;6.90;5.00;;;8.70;99.90;;;;;;5004362;28;38531;-76
2022/03/08 11:42:52;;;;;;;8.17;5.40;;;8.90;99.90;;;;;;5020086;28;39804;-79
2022/03/08 11:45:21;;;;;;;6.77;4.93;;;8.90;99.90;;;;;;4996648;28;38766;-80
2022/03/08 11:48:00;;;;;;;10.40;4.67;;;9.00;99.90;;;;;;5010014;28;37656;-77
2022/03/08 11:50:36;;;;;;;7.50;5.17;;;8.90;99.90;;;;;;5007266;28;38805;-79
2022/03/08 11:53:11;;;;;;;7.07;4.23;;;9.10;99.90;;;;;;5019796;28;38625;-79
2022/03/08 11:55:43;;;;;;;9.33;5.80;;;8.80;99.90;;;;;;5008410;28;39388;-79
2022/03/08 11:58:20;;;;;;;5.43;4.53;;;9.00;99.90;;;;;;5007489;28;35821;-80
2022/03/08 12:00:58;;;;;;;8.57;5.00;;;9.00;99.90;;;;;;5003984;28;36429;-79
2022/03/08 12:03:24;;;;;;;6.87;5.07;;;9.00;99.90;;;;;;5002156;28;39352;-80
2022/03/08 12:06:04;;;;;;;9.13;5.23;;;9.10;99.90;;;;;;5015973;28;38097;-79
2022/03/08 12:08:30;;;;;;;5.60;4.20;;;9.10;99.90;;;;;;5010234;28;47880;-79
2022/03/08 12:11:05;;;;;;;5.63;4.97;;;9.20;99.90;;;;;;5010410;28;38999;-80
2022/03/08 12:13:34;;;;;;;6.87;4.93;;;9.40;99.90;;;;;;5036664;28;47124;-80
2022/03/08 12:16:08;;;;;;;9.33;4.87;;;9.30;99.90;;;;;;5010137;28;40171;-80
2022/03/08 12:18:41;;;;;;;8.73;5.00;;;9.30;99.90;;;;;;4998948;28;47477;-79
2022/03/08 12:21:17;;;;;;;7.40;5.07;;;9.30;99.90;;;;;;5007227;28;39493;-79
2022/03/08 12:23:54;;;;;;;6.10;4.97;;;9.40;99.90;;;;;;5015475;28;37854;-79
2022/03/08 12:26:36;;;;;;;10.23;5.00;;;9.50;99.90;;;;;;5012549;28;38836;-77
2022/03/08 12:29:11;;;;;;;10.60;6.13;;;9.50;99.90;;;;;;5013711;28;37520;-77
2022/03/08 12:31:59;;;;;;;6.40;5.27;;;9.70;99.90;;;;;;5005781;28;48048;-78
2022/03/08 12:34:42;;;;;;;6.67;4.87;;;9.70;99.90;;;;;;5001378;28;40209;-77
2022/03/08 12:37:13;;;;;;;13.90;6.00;;;9.90;99.90;;;;;;4999547;28;39381;-77
2022/03/08 12:40:00;;;;;;;5.37;4.57;;;10.00;99.90;;;;;;4997974;28;38495;-77
2022/03/08 12:42:44;;;;;;;9.50;4.83;;;10.00;99.90;;;;;;4998704;28;46442;-77
2022/03/08 12:45:14;;;;;;;8.47;5.13;;;9.80;99.90;;;;;;5000074;28;39614;-78
2022/03/08 12:47:45;;;;;;;8.60;5.73;;;9.90;99.90;;;;;;5017713;28;38994;-78
2022/03/08 12:50:15;;;;;;;5.87;5.17;;;9.70;99.90;;;;;;5000663;28;37136;-77
2022/03/08 12:52:53;;;;;;;6.77;5.20;;;9.80;99.90;;;;;;5025188;28;40504;-77